createdAt,value
2019-03-05T00:00:33.859Z,4.40
2019-03-05T00:03:03.776Z,4.40
2019-03-05T00:05:33.800Z,4.50
2019-03-05T00:08:03.841Z,4.50
2019-03-05T00:10:33.850Z,4.60
2019-03-05T00:13:03.853Z,4.60
2019-03-05T00:15:33.777Z,4.60
2019-03-05T00:18:03.826Z,4.60
2019-03-05T00:20:33.658Z,4.70
2019-03-05T00:23:03.757Z,4.70
2019-03-05T00:25:33.720Z,4.70
2019-03-05T00:28:32.575Z,4.70
2019-03-05T00:31:19.914Z,4.70
2019-03-05T00:34:44.774Z,4.70
2019-03-05T00:37:26.534Z,4.70
2019-03-05T00:40:41.886Z,4.70
2019-03-05T00:43:21.076Z,4.70
2019-03-05T00:46:20.205Z,4.70
2019-03-05T00:49:23.935Z,4.80
2019-03-05T00:52:22.426Z,4.70
2019-03-05T00:55:04.010Z,4.70
2019-03-05T00:58:04.598Z,4.60
2019-03-05T01:01:00.854Z,4.60
2019-03-05T01:04:05.268Z,4.60
2019-03-05T01:06:35.716Z,4.60
2019-03-05T01:09:12.688Z,4.60
2019-03-05T01:11:42.506Z,4.50
2019-03-05T01:14:13.353Z,4.50
2019-03-05T01:16:43.500Z,4.50
2019-03-05T01:19:13.393Z,4.50
2019-03-05T01:21:43.211Z,4.50
2019-03-05T01:24:13.110Z,4.40
2019-03-05T01:26:42.989Z,4.40
2019-03-05T01:29:14.619Z,4.40
2019-03-05T01:32:01.769Z,4.30
2019-03-05T01:34:45.416Z,4.30
2019-03-05T01:37:15.229Z,4.10
2019-03-05T01:40:07.101Z,4.10
2019-03-05T01:42:37.066Z,4.10
2019-03-05T01:45:08.478Z,4.10
2019-03-05T01:47:38.290Z,4.20
2019-03-05T01:50:10.378Z,4.20
2019-03-05T01:52:40.186Z,4.10
2019-03-05T01:55:10.000Z,4.10
2019-03-05T01:57:39.809Z,4.00
2019-03-05T02:00:11.800Z,3.90
2019-03-05T02:02:41.810Z,3.90
2019-03-05T02:05:11.886Z,3.90
2019-03-05T02:07:41.699Z,3.90
2019-03-05T02:10:17.713Z,3.80
2019-03-05T02:12:47.597Z,3.80
2019-03-05T02:15:17.561Z,3.70
2019-03-05T02:17:47.455Z,3.70
2019-03-05T02:20:22.441Z,3.80
2019-03-05T02:23:19.430Z,3.70
2019-03-05T02:25:56.882Z,3.60
2019-03-05T02:28:47.410Z,3.70
2019-03-05T02:31:48.772Z,3.70
2019-03-05T02:34:30.673Z,3.60
2019-03-05T02:37:41.830Z,3.60
2019-03-05T02:40:39.018Z,3.70
2019-03-05T02:43:33.614Z,3.80
2019-03-05T02:46:35.904Z,3.80
2019-03-05T02:49:26.478Z,3.90
2019-03-05T02:52:13.543Z,3.90
2019-03-05T02:55:36.774Z,4.00
2019-03-05T02:58:05.166Z,4.00
2019-03-05T03:00:52.723Z,4.00
2019-03-05T03:03:53.474Z,4.10
2019-03-05T03:06:26.630Z,4.20
2019-03-05T03:09:43.194Z,4.20
2019-03-05T03:12:13.286Z,4.20
2019-03-05T03:14:43.443Z,4.30
2019-03-05T03:17:13.420Z,4.20
2019-03-05T03:19:43.276Z,4.20
2019-03-05T03:22:13.205Z,4.20
2019-03-05T03:24:43.040Z,4.20
2019-03-05T03:27:13.462Z,4.10
2019-03-05T03:29:43.417Z,4.20
2019-03-05T03:32:13.267Z,4.20
2019-03-05T03:34:43.092Z,4.20
2019-03-05T03:37:13.056Z,4.20
2019-03-05T03:39:42.784Z,4.20
2019-03-05T03:42:12.527Z,4.10
2019-03-05T03:44:42.342Z,4.10
2019-03-05T03:47:12.268Z,4.10
2019-03-05T03:49:42.244Z,4.00
2019-03-05T03:52:12.334Z,4.00
2019-03-05T03:54:42.392Z,4.00
2019-03-05T03:57:12.312Z,4.00
2019-03-05T03:59:42.378Z,4.00
2019-03-05T04:02:12.344Z,4.00
2019-03-05T04:04:42.237Z,3.90
2019-03-05T04:07:12.116Z,3.90
2019-03-05T04:09:42.256Z,3.80
2019-03-05T04:12:12.037Z,3.70
2019-03-05T04:14:41.778Z,3.70
2019-03-05T04:17:11.768Z,3.60
2019-03-05T04:19:41.662Z,3.70
2019-03-05T04:22:11.723Z,3.80
2019-03-05T04:24:41.721Z,3.80
2019-03-05T04:27:11.454Z,3.80
2019-03-05T04:29:41.197Z,3.80
2019-03-05T04:32:11.199Z,3.90
2019-03-05T04:34:41.093Z,3.90
2019-03-05T04:37:10.842Z,3.90
2019-03-05T04:39:40.582Z,4.00
2019-03-05T04:42:10.386Z,3.90
2019-03-05T04:44:47.994Z,4.00
2019-03-05T04:47:17.879Z,4.00
2019-03-05T04:49:56.574Z,3.90
2019-03-05T04:52:29.689Z,4.00
2019-03-05T04:54:59.430Z,4.00
2019-03-05T04:57:29.161Z,4.00
2019-03-05T04:59:58.914Z,4.10
2019-03-05T05:02:28.721Z,4.10
2019-03-05T05:04:58.605Z,4.10
2019-03-05T05:07:28.415Z,4.10
2019-03-05T05:09:58.236Z,4.10
2019-03-05T05:12:27.985Z,4.00
2019-03-05T05:14:57.726Z,4.00
2019-03-05T05:17:27.529Z,3.90
2019-03-05T05:19:57.270Z,3.80
2019-03-05T05:22:27.077Z,3.80
2019-03-05T05:24:56.974Z,3.60
2019-03-05T05:27:26.708Z,3.50
2019-03-05T05:29:56.700Z,3.50
2019-03-05T05:32:26.700Z,3.40
2019-03-05T05:34:56.773Z,3.40
2019-03-05T05:37:26.502Z,3.50
2019-03-05T05:40:42.531Z,3.60
2019-03-05T05:43:32.037Z,3.50
2019-03-05T05:46:01.866Z,3.50
2019-03-05T05:48:31.612Z,3.40
2019-03-05T05:51:01.416Z,3.40
2019-03-05T05:53:31.306Z,3.30
2019-03-05T05:56:01.121Z,3.30
2019-03-05T05:58:30.865Z,3.20
2019-03-05T06:01:02.933Z,3.30
2019-03-05T06:03:32.669Z,3.40
2019-03-05T06:06:02.481Z,3.40
2019-03-05T06:08:32.285Z,3.40
2019-03-05T06:11:02.051Z,3.40
2019-03-05T06:13:31.788Z,3.50
2019-03-05T06:16:01.533Z,3.50
2019-03-05T06:18:31.597Z,3.60
2019-03-05T06:21:01.423Z,3.80
2019-03-05T06:23:31.238Z,3.80
2019-03-05T06:26:00.986Z,3.80
2019-03-05T06:28:30.708Z,3.80
2019-03-05T06:31:00.602Z,4.00
2019-03-05T06:33:30.321Z,4.20
2019-03-05T06:36:00.130Z,4.60
2019-03-05T06:38:30.225Z,5.50
2019-03-05T06:41:00.113Z,6.60
2019-03-05T06:43:29.917Z,6.90
2019-03-05T06:45:59.755Z,6.50
2019-03-05T06:48:29.552Z,6.00
2019-03-05T06:50:59.541Z,5.90
2019-03-05T06:53:29.630Z,6.60
2019-03-05T06:55:59.614Z,7.50
2019-03-05T06:58:29.341Z,7.40
2019-03-05T07:00:59.165Z,7.10
2019-03-05T07:03:29.386Z,6.60
2019-03-05T07:06:35.129Z,6.20
2019-03-05T07:09:15.439Z,6.00
2019-03-05T07:12:19.378Z,5.60
2019-03-05T07:15:15.637Z,5.50
2019-03-05T07:17:49.646Z,5.40
2019-03-05T07:20:55.078Z,5.30
2019-03-05T07:23:48.080Z,5.30
2019-03-05T07:26:17.854Z,5.40
2019-03-05T07:28:50.498Z,5.70
2019-03-05T07:31:20.250Z,5.70
2019-03-05T07:33:49.985Z,5.90
2019-03-05T07:36:19.869Z,6.20
2019-03-05T07:38:49.686Z,6.20
2019-03-05T07:41:19.610Z,6.10
2019-03-05T07:43:51.118Z,6.10
2019-03-05T07:46:21.361Z,6.10
2019-03-05T07:48:51.434Z,6.20
2019-03-05T07:51:21.229Z,6.20
2019-03-05T07:53:51.054Z,6.20
2019-03-05T07:56:20.805Z,6.20
2019-03-05T07:58:50.796Z,6.30
2019-03-05T08:01:22.483Z,6.20
2019-03-05T08:03:52.133Z,6.30
2019-03-05T08:06:21.946Z,6.30
2019-03-05T08:09:27.191Z,6.50
2019-03-05T08:12:02.870Z,6.70
2019-03-05T08:14:59.014Z,6.70
2019-03-05T08:17:29.074Z,6.60
2019-03-05T08:19:58.832Z,6.70
2019-03-05T08:22:28.728Z,6.80
2019-03-05T08:24:58.732Z,6.70
2019-03-05T08:27:28.461Z,6.80
2019-03-05T08:30:13.723Z,6.60
2019-03-05T08:32:37.177Z,6.50
2019-03-05T08:35:07.898Z,6.50
2019-03-05T08:37:37.737Z,6.50
2019-03-05T08:40:09.174Z,6.30
2019-03-05T08:42:39.081Z,7.30
2019-03-05T08:45:10.545Z,9.60
2019-03-05T08:47:40.438Z,11.20
2019-03-05T08:50:11.097Z,11.30
2019-03-05T08:52:41.242Z,11.20
2019-03-05T08:55:11.153Z,10.90
2019-03-05T08:57:40.960Z,11.60
2019-03-05T09:00:12.625Z,12.60
2019-03-05T09:02:48.507Z,11.60
2019-03-05T09:05:15.065Z,10.30
2019-03-05T09:07:46.117Z,9.90
2019-03-05T09:10:16.830Z,10.40
2019-03-05T09:12:47.427Z,10.60
2019-03-05T09:15:17.690Z,10.60
2019-03-05T09:17:47.687Z,11.10
2019-03-05T09:20:18.101Z,11.60
2019-03-05T09:22:48.002Z,11.10
2019-03-05T09:25:18.349Z,9.90
2019-03-05T09:27:48.301Z,10.50
2019-03-05T09:30:18.948Z,10.40
2019-03-05T09:32:49.141Z,10.10
2019-03-05T09:35:19.048Z,10.20
2019-03-05T09:37:48.998Z,10.30
2019-03-05T09:40:22.678Z,10.00
2019-03-05T09:42:52.627Z,10.00
2019-03-05T09:45:22.613Z,10.30
2019-03-05T09:47:52.520Z,9.90
2019-03-05T09:50:23.393Z,9.30
2019-03-05T09:52:55.143Z,9.30
2019-03-05T09:55:26.627Z,9.20
2019-03-05T09:58:07.378Z,9.10
2019-03-05T10:00:28.400Z,9.30
2019-03-05T10:02:58.302Z,8.90
2019-03-05T10:05:28.283Z,8.70
2019-03-05T10:08:01.604Z,8.60
2019-03-05T10:10:31.790Z,8.50
2019-03-05T10:13:04.103Z,8.40
2019-03-05T10:15:33.752Z,8.50
2019-03-05T10:18:12.329Z,8.70
2019-03-05T10:20:35.445Z,8.70
2019-03-05T10:23:05.542Z,8.60
2019-03-05T10:25:36.078Z,8.70
2019-03-05T10:28:06.501Z,8.40
2019-03-05T10:30:37.302Z,8.40
2019-03-05T10:33:09.610Z,8.50
2019-03-05T10:35:39.713Z,8.50
2019-03-05T10:38:10.801Z,8.50
2019-03-05T10:40:41.262Z,8.90
2019-03-05T10:43:11.791Z,9.10
2019-03-05T10:45:43.647Z,9.00
2019-03-05T10:48:14.485Z,8.90
2019-03-05T10:50:44.850Z,8.80
2019-03-05T10:53:14.737Z,8.80
2019-03-05T10:55:45.846Z,9.20
2019-03-05T10:58:17.107Z,9.50
2019-03-05T11:00:47.370Z,9.40
2019-03-05T11:03:17.977Z,9.20
2019-03-05T11:05:49.225Z,9.20
2019-03-05T11:08:21.345Z,9.30
2019-03-05T11:10:51.686Z,9.30
2019-03-05T11:13:21.659Z,9.30
2019-03-05T11:15:54.823Z,9.20
2019-03-05T11:22:20.494Z,9.90
2019-03-05T11:24:50.650Z,10.30
2019-03-05T11:27:20.661Z,10.40
2019-03-05T11:29:50.569Z,10.70
2019-03-05T11:32:20.406Z,10.60
2019-03-05T11:34:50.147Z,10.50
2019-03-05T11:37:21.014Z,10.30
2019-03-05T11:39:50.902Z,10.40
2019-03-05T11:42:20.924Z,9.90
2019-03-05T11:44:58.997Z,9.70
2019-03-05T11:47:23.186Z,9.60
2019-03-05T11:49:53.885Z,9.60
2019-03-05T11:52:23.638Z,9.70
2019-03-05T11:54:53.361Z,9.40
2019-03-05T11:57:23.114Z,9.50
2019-03-05T11:59:52.986Z,9.60
2019-03-05T12:02:22.946Z,9.50
2019-03-05T12:04:52.721Z,9.60
2019-03-05T12:07:22.465Z,9.60
2019-03-05T12:09:52.265Z,9.60
2019-03-05T12:12:22.098Z,9.70
2019-03-05T12:14:52.006Z,9.70
2019-03-05T12:17:21.818Z,9.60
2019-03-05T12:19:52.078Z,9.70
2019-03-05T12:22:21.833Z,9.60
2019-03-05T12:24:51.842Z,9.70
2019-03-05T12:27:22.002Z,9.90
2019-03-05T12:29:52.294Z,10.20
2019-03-05T12:32:22.201Z,10.50
2019-03-05T12:34:52.037Z,11.10
2019-03-05T12:37:22.069Z,10.60
2019-03-05T12:39:51.993Z,10.40
2019-03-05T12:42:22.923Z,10.10
2019-03-05T12:44:53.155Z,9.70
2019-03-05T12:47:23.203Z,9.50
2019-03-05T12:49:54.037Z,9.40
2019-03-05T12:52:23.923Z,9.30
2019-03-05T12:54:56.193Z,9.20
2019-03-05T12:57:25.884Z,9.20
2019-03-05T12:59:55.778Z,9.20
2019-03-05T13:02:26.823Z,9.30
2019-03-05T13:04:56.905Z,9.40
2019-03-05T13:07:26.821Z,9.40
2019-03-05T13:09:58.187Z,9.50
2019-03-05T13:12:32.168Z,9.40
2019-03-05T13:15:08.871Z,9.40
2019-03-05T13:17:42.931Z,9.50
2019-03-05T13:20:22.571Z,9.50
2019-03-05T13:22:52.529Z,9.40
2019-03-05T13:25:28.422Z,9.40
2019-03-05T13:28:04.326Z,9.40
2019-03-05T13:30:46.118Z,9.40
2019-03-05T13:33:17.030Z,9.30
2019-03-05T13:35:49.945Z,9.40
2019-03-05T13:38:21.658Z,9.50
2019-03-05T13:40:52.583Z,9.60
2019-03-05T13:43:25.382Z,9.60
2019-03-05T13:45:55.560Z,9.70
2019-03-05T13:49:01.762Z,9.60
2019-03-05T13:51:59.809Z,9.60
2019-03-05T13:55:35.714Z,9.60
2019-03-05T13:58:49.768Z,9.50
2019-03-05T14:01:20.531Z,9.50
2019-03-05T14:04:01.238Z,9.40
2019-03-05T14:07:07.150Z,9.30
2019-03-05T14:09:35.714Z,9.30
2019-03-05T14:12:05.709Z,9.30
2019-03-05T14:14:42.329Z,9.30
2019-03-05T14:17:25.979Z,9.40
2019-03-05T14:19:58.432Z,9.50
2019-03-05T14:22:30.376Z,9.50
2019-03-05T14:25:02.401Z,9.50
2019-03-05T14:27:32.224Z,9.40
2019-03-05T14:30:03.076Z,9.40
2019-03-05T14:32:33.722Z,9.20
2019-03-05T14:35:07.882Z,9.20
2019-03-05T14:37:37.843Z,9.20
2019-03-05T14:40:23.710Z,9.20
2019-03-05T14:42:43.118Z,9.10
2019-03-05T14:45:17.943Z,9.10
2019-03-05T14:47:52.466Z,9.00
2019-03-05T14:50:23.563Z,8.90
2019-03-05T14:53:00.836Z,9.00
2019-03-05T14:55:30.757Z,8.90
2019-03-05T14:58:04.459Z,9.00
2019-03-05T15:00:48.408Z,9.20
2019-03-05T15:03:24.354Z,9.20
2019-03-05T15:05:55.802Z,9.10
2019-03-05T15:08:26.186Z,9.10
2019-03-05T15:10:55.958Z,9.00
2019-03-05T15:13:26.048Z,9.00
2019-03-05T15:15:56.062Z,8.90
2019-03-05T15:18:26.220Z,8.90
2019-03-05T15:20:57.013Z,8.70
2019-03-05T15:23:27.008Z,8.70
2019-03-05T15:25:57.093Z,8.70
2019-03-05T15:28:26.987Z,8.60
2019-03-05T15:30:57.115Z,8.60
2019-03-05T15:33:27.072Z,8.60
2019-03-05T15:35:56.870Z,8.50
2019-03-05T15:38:27.022Z,8.40
2019-03-05T15:40:57.142Z,8.40
2019-03-05T15:43:27.013Z,8.20
2019-03-05T15:45:57.013Z,8.00
2019-03-05T15:48:27.257Z,7.90
2019-03-05T15:50:57.545Z,7.80
2019-03-05T15:53:27.675Z,7.70
2019-03-05T15:55:58.555Z,7.60
2019-03-05T15:58:28.554Z,7.50
2019-03-05T16:00:59.515Z,7.40
2019-03-05T16:03:29.504Z,7.30
2019-03-05T16:05:59.647Z,7.30
2019-03-05T16:08:29.457Z,7.20
2019-03-05T16:10:59.285Z,7.10
2019-03-05T16:13:29.269Z,7.10
2019-03-05T16:15:59.170Z,7.00
2019-03-05T16:18:29.229Z,7.00
2019-03-05T16:21:02.424Z,7.00
2019-03-05T16:23:30.883Z,7.00
2019-03-05T16:26:00.778Z,7.00
2019-03-05T16:28:30.590Z,7.00
2019-03-05T16:31:27.828Z,6.90
2019-03-05T16:34:13.105Z,6.90
2019-03-05T16:36:56.909Z,6.80
2019-03-05T16:39:51.782Z,6.70
2019-03-05T16:42:41.784Z,6.60
2019-03-05T16:45:30.093Z,6.50
2019-03-05T16:48:34.205Z,6.40
2019-03-05T16:51:12.420Z,6.40
2019-03-05T16:54:07.959Z,6.30
2019-03-05T16:57:02.906Z,6.30
2019-03-05T16:59:45.859Z,6.20
2019-03-05T17:02:26.917Z,6.10
2019-03-05T17:05:16.450Z,6.10
2019-03-05T17:07:56.532Z,6.00
2019-03-05T17:10:54.806Z,6.00
2019-03-05T17:13:24.650Z,5.90
2019-03-05T17:15:54.478Z,5.80
2019-03-05T17:18:24.386Z,5.80
2019-03-05T17:20:54.399Z,5.80
2019-03-05T17:23:24.670Z,5.80
2019-03-05T17:25:54.672Z,5.80
2019-03-05T17:28:24.515Z,5.70
2019-03-05T17:30:54.449Z,5.60
2019-03-05T17:33:24.473Z,5.60
2019-03-05T17:35:54.550Z,5.60
2019-03-05T17:38:25.013Z,5.60
2019-03-05T17:40:55.338Z,5.60
2019-03-05T17:43:25.867Z,5.50
2019-03-05T17:45:56.134Z,5.50
2019-03-05T17:48:26.621Z,5.50
2019-03-05T17:50:57.057Z,5.40
2019-03-05T17:53:27.363Z,5.40
2019-03-05T17:55:57.412Z,5.40
2019-03-05T17:58:27.712Z,5.40
2019-03-05T18:00:57.965Z,5.40
2019-03-05T18:03:27.869Z,5.30
2019-03-05T18:05:57.986Z,5.20
2019-03-05T18:08:28.046Z,5.10
2019-03-05T18:10:58.086Z,5.10
2019-03-05T18:13:28.106Z,5.10
2019-03-05T18:15:58.421Z,5.00
2019-03-05T18:18:28.492Z,4.90
2019-03-05T18:20:58.589Z,5.00
2019-03-05T18:23:29.104Z,5.00
2019-03-05T18:25:58.916Z,4.90
2019-03-05T18:28:28.902Z,5.00
2019-03-05T18:30:58.801Z,5.00
2019-03-05T18:33:28.778Z,5.00
2019-03-05T18:35:59.060Z,5.00
2019-03-05T18:38:29.041Z,5.00
2019-03-05T18:40:59.338Z,4.90
2019-03-05T18:43:29.258Z,4.80
2019-03-05T18:45:59.230Z,4.80
2019-03-05T18:48:29.046Z,4.70
2019-03-05T18:50:59.226Z,4.70
2019-03-05T18:53:29.337Z,4.70
2019-03-05T18:55:59.422Z,4.60
2019-03-05T18:58:29.322Z,4.50
2019-03-05T19:00:59.134Z,4.50
2019-03-05T19:03:28.953Z,4.40
2019-03-05T19:05:58.851Z,4.40
2019-03-05T19:08:29.388Z,4.40
2019-03-05T19:10:59.685Z,4.40
2019-03-05T19:13:29.758Z,4.40
2019-03-05T19:15:59.888Z,4.30
2019-03-05T19:18:29.913Z,4.30
2019-03-05T19:20:59.957Z,4.30
2019-03-05T19:23:29.939Z,4.30
2019-03-05T19:26:00.191Z,4.30
2019-03-05T19:28:30.345Z,4.20
2019-03-05T19:31:00.110Z,4.20
2019-03-05T19:33:30.073Z,4.20
2019-03-05T19:35:59.981Z,4.20
2019-03-05T19:38:29.878Z,4.20
2019-03-05T19:40:59.830Z,4.20
2019-03-05T19:43:29.730Z,4.20
2019-03-05T19:45:59.633Z,4.20
2019-03-05T19:48:29.904Z,4.10
2019-03-05T19:50:59.741Z,4.10
2019-03-05T19:53:29.632Z,4.10
2019-03-05T19:55:59.774Z,4.10
2019-03-05T19:58:29.711Z,4.10
2019-03-05T20:01:11.923Z,4.10
2019-03-05T20:03:41.783Z,4.00
2019-03-05T20:06:12.774Z,4.10
2019-03-05T20:08:42.807Z,4.10
2019-03-05T20:11:15.335Z,4.10
2019-03-05T20:13:46.817Z,4.10
2019-03-05T20:16:18.805Z,4.10
2019-03-05T20:18:49.753Z,4.10
2019-03-05T20:21:22.605Z,4.10
2019-03-05T20:23:54.498Z,4.10
2019-03-05T20:26:25.370Z,4.10
2019-03-05T20:28:56.462Z,4.10
2019-03-05T20:31:27.458Z,4.10
2019-03-05T20:33:57.398Z,4.10
2019-03-05T20:36:30.609Z,4.10
2019-03-05T20:39:00.419Z,4.10
2019-03-05T20:41:32.734Z,4.10
2019-03-05T20:44:02.809Z,4.00
2019-03-05T20:46:33.005Z,4.00
2019-03-05T20:49:03.446Z,4.00
2019-03-05T20:51:35.350Z,4.10
2019-03-05T20:54:05.621Z,4.10
2019-03-05T20:56:35.506Z,4.10
2019-03-05T20:59:06.384Z,4.10
2019-03-05T21:01:37.979Z,4.20
2019-03-05T21:04:09.777Z,4.20
2019-03-05T21:06:40.724Z,4.20
2019-03-05T21:09:24.792Z,4.30
2019-03-05T21:11:55.954Z,4.30
2019-03-05T21:14:26.162Z,4.30
2019-03-05T21:16:56.079Z,4.30
2019-03-05T21:19:25.898Z,4.30
2019-03-05T21:21:55.795Z,4.30
2019-03-05T21:24:25.774Z,4.30
2019-03-05T21:26:55.520Z,4.30
2019-03-05T21:29:25.334Z,4.30
2019-03-05T21:31:55.306Z,4.40
2019-03-05T21:34:25.390Z,4.30
2019-03-05T21:36:55.533Z,4.30
2019-03-05T21:39:26.252Z,4.20
2019-03-05T21:41:56.321Z,4.20
2019-03-05T21:44:26.073Z,4.20
2019-03-05T21:46:56.297Z,4.30
2019-03-05T21:49:26.115Z,4.20
2019-03-05T21:51:55.933Z,4.20
2019-03-05T21:54:26.291Z,4.20
2019-03-05T21:56:58.470Z,4.20
2019-03-05T21:59:28.282Z,4.30
2019-03-05T22:01:58.051Z,4.30
2019-03-05T22:04:27.913Z,4.40
2019-03-05T22:06:58.844Z,4.50
2019-03-05T22:09:29.398Z,4.60
2019-03-05T22:11:59.285Z,4.60
2019-03-05T22:14:29.326Z,4.70
2019-03-05T22:16:59.184Z,4.70
2019-03-05T22:19:29.118Z,4.80
2019-03-05T22:22:00.156Z,4.80
2019-03-05T22:24:30.190Z,4.80
2019-03-05T22:26:59.946Z,4.80
2019-03-05T22:29:29.839Z,4.80
2019-03-05T22:31:59.916Z,4.90
2019-03-05T22:34:29.734Z,4.80
2019-03-05T22:36:59.465Z,4.80
2019-03-05T22:39:29.376Z,4.80
2019-03-05T22:41:59.314Z,4.80
2019-03-05T22:44:29.409Z,4.80
2019-03-05T22:46:59.546Z,4.80
2019-03-05T22:49:29.374Z,4.80
2019-03-05T22:51:59.183Z,4.80
2019-03-05T22:54:29.261Z,4.80
2019-03-05T22:56:58.989Z,4.80
2019-03-05T22:59:28.733Z,4.80
2019-03-05T23:01:58.914Z,4.70
2019-03-05T23:04:32.123Z,4.70
2019-03-05T23:07:02.110Z,4.70
2019-03-05T23:09:32.177Z,4.70
2019-03-05T23:12:02.134Z,4.60
2019-03-05T23:14:33.074Z,4.70
2019-03-05T23:17:03.029Z,4.60
2019-03-05T23:19:33.599Z,4.60
2019-03-05T23:22:03.777Z,4.60
2019-03-05T23:24:33.582Z,4.60
2019-03-05T23:27:03.931Z,4.60
2019-03-05T23:29:39.854Z,4.60
2019-03-05T23:32:09.995Z,4.60
2019-03-05T23:34:42.501Z,4.60
2019-03-05T23:37:12.521Z,4.60
2019-03-05T23:39:42.789Z,4.50
2019-03-05T23:42:12.678Z,4.60
2019-03-05T23:44:42.498Z,4.60
2019-03-05T23:47:12.374Z,4.60
2019-03-05T23:49:42.277Z,4.60
2019-03-05T23:52:12.088Z,4.60
2019-03-05T23:54:41.821Z,4.60
2019-03-05T23:57:11.702Z,4.60
2019-03-05T23:59:41.518Z,4.60
